createdAt,value
2023-04-16T00:01:27.391Z,12.14
2023-04-16T00:03:55.334Z,12.61
2023-04-16T00:06:23.265Z,11.71
2023-04-16T00:08:55.679Z,12.60
2023-04-16T00:11:37.092Z,12.74
2023-04-16T00:14:05.852Z,12.77
2023-04-16T00:16:32.738Z,12.78
2023-04-16T00:18:59.483Z,12.71
2023-04-16T00:21:26.755Z,12.72
2023-04-16T00:24:08.446Z,12.69
2023-04-16T00:26:35.525Z,12.66
2023-04-16T00:29:02.529Z,12.75
2023-04-16T00:31:30.993Z,12.35
2023-04-16T00:33:58.832Z,11.87
2023-04-16T00:36:29.942Z,12.27
2023-04-16T00:38:57.256Z,12.38
2023-04-16T00:41:24.235Z,12.26
2023-04-16T00:43:56.130Z,12.51
2023-04-16T00:46:24.279Z,12.56
2023-04-16T00:48:58.479Z,12.48
2023-04-16T00:51:39.450Z,12.59
2023-04-16T00:54:06.814Z,12.79
2023-04-16T00:56:43.731Z,12.81
2023-04-16T00:59:13.081Z,12.37
2023-04-16T01:01:42.942Z,12.66
2023-04-16T01:04:54.727Z,12.57
2023-04-16T01:07:21.588Z,12.42
2023-04-16T01:09:51.352Z,12.52
2023-04-16T01:12:18.079Z,12.52
2023-04-16T01:14:44.939Z,12.27
2023-04-16T01:17:12.244Z,12.57
2023-04-16T01:19:42.707Z,12.57
2023-04-16T01:24:51.062Z,12.36
2023-04-16T01:27:20.789Z,12.37
2023-04-16T01:29:47.532Z,12.09
2023-04-16T01:32:20.790Z,12.30
2023-04-16T01:34:47.732Z,12.45
2023-04-16T01:37:17.221Z,12.18
2023-04-16T01:39:53.037Z,12.07
2023-04-16T01:42:22.716Z,12.39
2023-04-16T01:44:49.478Z,12.40
2023-04-16T01:47:19.812Z,12.27
2023-04-16T01:49:51.065Z,12.39
2023-04-16T01:52:31.846Z,12.30
2023-04-16T01:55:00.536Z,12.20
2023-04-16T01:57:34.000Z,12.27
2023-04-16T02:00:00.775Z,12.29
2023-04-16T02:02:36.902Z,12.23
2023-04-16T02:05:09.772Z,12.25
2023-04-16T02:07:41.770Z,12.10
2023-04-16T02:10:10.357Z,12.32
2023-04-16T02:12:37.146Z,12.07
2023-04-16T02:15:07.707Z,12.37
2023-04-16T02:17:34.480Z,12.23
2023-04-16T02:20:08.680Z,12.19
2023-04-16T02:22:35.532Z,12.17
2023-04-16T02:25:02.345Z,12.07
2023-04-16T02:27:29.136Z,12.16
2023-04-16T02:29:55.917Z,12.16
2023-04-16T02:32:25.872Z,12.11
2023-04-16T02:34:52.626Z,12.00
2023-04-16T02:37:30.799Z,12.24
2023-04-16T02:39:57.974Z,12.19
2023-04-16T02:42:24.754Z,12.21
2023-04-16T02:44:58.140Z,12.02
2023-04-16T02:47:26.085Z,12.14
2023-04-16T02:50:01.752Z,12.08
2023-04-16T02:52:28.669Z,12.10
2023-04-16T02:54:57.280Z,12.15
2023-04-16T02:57:24.011Z,12.07
2023-04-16T02:59:50.729Z,11.72
2023-04-16T03:02:19.361Z,11.93
2023-04-16T03:04:55.774Z,12.02
2023-04-16T03:07:22.520Z,12.05
2023-04-16T03:09:49.443Z,12.00
2023-04-16T03:12:23.464Z,11.87
2023-04-16T03:14:53.166Z,11.77
2023-04-16T03:17:21.255Z,11.86
2023-04-16T03:19:48.192Z,11.78
2023-04-16T03:22:14.973Z,11.80
2023-04-16T03:24:46.189Z,11.54
2023-04-16T03:27:13.497Z,11.47
2023-04-16T03:29:40.286Z,11.83
2023-04-16T03:32:12.579Z,11.69
2023-04-16T03:34:42.896Z,11.67
2023-04-16T03:37:12.171Z,11.65
2023-04-16T03:39:41.809Z,11.71
2023-04-16T03:42:16.193Z,11.78
2023-04-16T03:44:43.170Z,11.69
2023-04-16T03:47:09.922Z,11.07
2023-04-16T03:49:36.616Z,11.80
2023-04-16T03:52:03.359Z,11.75
2023-04-16T03:54:30.068Z,11.58
2023-04-16T03:56:57.233Z,11.77
2023-04-16T03:59:23.993Z,10.90
2023-04-16T04:01:54.032Z,11.53
2023-04-16T04:04:24.190Z,11.62
2023-04-16T04:06:50.987Z,11.60
2023-04-16T04:09:17.703Z,11.75
2023-04-16T04:11:44.477Z,11.48
2023-04-16T04:14:15.220Z,11.09
2023-04-16T04:16:44.018Z,11.24
2023-04-16T04:19:11.030Z,11.48
2023-04-16T04:21:41.863Z,11.20
2023-04-16T04:24:08.648Z,11.73
2023-04-16T04:26:35.409Z,11.47
2023-04-16T04:29:02.204Z,11.39
2023-04-16T04:31:44.942Z,11.47
2023-04-16T04:34:11.846Z,11.64
2023-04-16T04:36:38.627Z,11.43
2023-04-16T04:39:06.256Z,11.59
2023-04-16T04:41:38.852Z,11.56
2023-04-16T04:44:05.743Z,11.63
2023-04-16T04:46:32.618Z,11.40
2023-04-16T04:48:59.413Z,11.50
2023-04-16T04:51:27.224Z,11.64
2023-04-16T04:53:53.939Z,11.59
2023-04-16T04:56:21.028Z,11.49
2023-04-16T04:58:47.792Z,11.67
2023-04-16T05:01:19.756Z,11.42
2023-04-16T05:03:47.179Z,11.65
2023-04-16T05:06:14.096Z,11.73
2023-04-16T05:08:40.866Z,11.24
2023-04-16T05:11:07.630Z,11.52
2023-04-16T05:13:47.131Z,11.74
2023-04-16T05:16:14.368Z,11.46
2023-04-16T05:18:41.618Z,11.53
2023-04-16T05:21:08.412Z,11.79
2023-04-16T05:23:35.169Z,11.70
2023-04-16T05:26:01.951Z,11.76
2023-04-16T05:28:35.768Z,11.75
2023-04-16T05:31:10.323Z,11.79
2023-04-16T05:33:52.570Z,11.53
2023-04-16T05:36:44.138Z,11.45
2023-04-16T05:39:11.530Z,11.77
2023-04-16T05:41:38.745Z,11.79
2023-04-16T05:44:08.113Z,11.96
2023-04-16T05:46:43.283Z,11.84
2023-04-16T05:49:19.189Z,12.15
2023-04-16T05:51:50.880Z,12.13
2023-04-16T05:54:17.849Z,11.91
2023-04-16T05:56:46.028Z,11.27
2023-04-16T05:59:16.242Z,12.19
2023-04-16T06:01:43.383Z,12.12
2023-04-16T06:04:11.589Z,12.22
2023-04-16T06:06:41.873Z,12.27
2023-04-16T06:09:09.711Z,12.31
2023-04-16T06:11:43.379Z,12.34
2023-04-16T06:14:11.661Z,12.21
2023-04-16T06:16:48.574Z,12.48
2023-04-16T06:19:18.123Z,12.43
2023-04-16T06:21:47.636Z,12.42
2023-04-16T06:24:15.151Z,12.22
2023-04-16T06:26:44.715Z,12.53
2023-04-16T06:29:12.040Z,12.45
2023-04-16T06:31:39.347Z,12.58
2023-04-16T06:34:06.203Z,12.36
2023-04-16T06:36:44.772Z,12.46
2023-04-16T06:39:13.757Z,12.62
2023-04-16T06:41:40.546Z,12.78
2023-04-16T06:44:08.109Z,12.85
2023-04-16T06:46:34.851Z,12.49
2023-04-16T06:49:01.867Z,12.85
2023-04-16T06:51:44.827Z,12.66
2023-04-16T06:54:14.814Z,12.70
2023-04-16T06:56:51.704Z,12.86
2023-04-16T06:59:18.607Z,13.00
2023-04-16T07:01:59.022Z,12.80
2023-04-16T07:04:28.814Z,11.87
2023-04-16T07:07:05.404Z,13.03
2023-04-16T07:09:32.408Z,13.09
2023-04-16T07:11:59.194Z,12.88
2023-04-16T07:14:44.930Z,13.29
2023-04-16T07:17:14.696Z,13.18
2023-04-16T07:19:44.831Z,13.12
2023-04-16T07:22:18.677Z,13.37
2023-04-16T07:24:48.118Z,13.27
2023-04-16T07:27:19.414Z,13.41
2023-04-16T07:29:46.273Z,13.61
2023-04-16T07:32:16.138Z,13.56
2023-04-16T07:34:46.246Z,12.06
2023-04-16T07:37:16.586Z,12.70
2023-04-16T07:39:46.082Z,13.38
2023-04-16T07:42:16.007Z,13.55
2023-04-16T07:44:43.116Z,13.74
2023-04-16T07:47:10.160Z,13.86
2023-04-16T07:49:36.892Z,13.66
2023-04-16T07:52:03.571Z,13.83
2023-04-16T07:54:30.782Z,13.88
2023-04-16T07:57:07.201Z,13.84
2023-04-16T07:59:39.414Z,13.87
2023-04-16T08:02:14.539Z,13.87
2023-04-16T08:05:07.021Z,13.98
2023-04-16T08:07:37.945Z,14.04
2023-04-16T08:10:05.884Z,14.05
2023-04-16T08:12:32.913Z,14.04
2023-04-16T08:15:03.165Z,14.09
2023-04-16T08:17:35.608Z,14.14
2023-04-16T08:20:08.796Z,14.15
2023-04-16T08:22:35.836Z,14.20
2023-04-16T08:25:12.300Z,14.03
2023-04-16T08:27:41.595Z,14.23
2023-04-16T08:30:22.779Z,13.69
2023-04-16T08:32:53.094Z,14.31
2023-04-16T08:35:19.936Z,14.54
2023-04-16T08:37:56.104Z,14.47
2023-04-16T08:40:24.870Z,14.64
2023-04-16T08:43:04.930Z,14.72
2023-04-16T08:45:35.020Z,14.65
2023-04-16T08:48:06.590Z,14.08
2023-04-16T08:50:35.805Z,14.87
2023-04-16T08:53:21.859Z,14.78
2023-04-16T08:55:50.657Z,14.87
2023-04-16T08:58:22.921Z,15.01
2023-04-16T09:00:50.030Z,15.08
2023-04-16T09:03:17.057Z,14.80
2023-04-16T09:05:49.854Z,14.69
2023-04-16T09:08:25.083Z,14.41
2023-04-16T09:10:56.153Z,15.31
2023-04-16T09:13:26.054Z,15.07
2023-04-16T09:16:01.863Z,15.51
2023-04-16T09:18:38.884Z,15.70
2023-04-16T09:21:06.053Z,15.16
2023-04-16T09:23:38.743Z,15.86
2023-04-16T09:26:12.140Z,15.87
2023-04-16T09:28:46.997Z,15.68
2023-04-16T09:31:18.494Z,16.20
2023-04-16T09:34:09.228Z,16.03
2023-04-16T09:36:39.317Z,16.42
2023-04-16T09:39:20.158Z,16.39
2023-04-16T09:41:55.514Z,16.54
2023-04-16T09:44:37.657Z,16.70
2023-04-16T09:47:12.013Z,16.65
2023-04-16T09:49:50.983Z,16.78
2023-04-16T09:52:27.112Z,16.90
2023-04-16T09:55:00.166Z,16.72
2023-04-16T09:57:27.330Z,17.36
2023-04-16T09:59:59.539Z,17.38
2023-04-16T10:02:30.232Z,17.36
2023-04-16T10:05:00.593Z,17.15
2023-04-16T10:07:35.027Z,17.69
2023-04-16T10:10:08.484Z,18.23
2023-04-16T10:12:37.535Z,17.95
2023-04-16T10:15:05.180Z,17.92
2023-04-16T10:17:32.349Z,17.69
2023-04-16T10:20:06.509Z,17.55
2023-04-16T10:22:39.921Z,18.41
2023-04-16T10:25:17.064Z,17.88
2023-04-16T10:27:52.224Z,18.64
2023-04-16T10:30:22.498Z,17.30
2023-04-16T10:32:51.126Z,18.53
2023-04-16T10:35:28.582Z,18.40
2023-04-16T10:38:44.074Z,18.88
2023-04-16T10:41:06.021Z,18.92
2023-04-16T10:43:44.326Z,18.99
2023-04-16T10:46:23.201Z,19.71
2023-04-16T10:48:53.633Z,19.26
2023-04-16T10:51:38.949Z,19.65
2023-04-16T10:54:08.738Z,19.89
2023-04-16T10:56:38.504Z,19.82
2023-04-16T10:59:11.220Z,19.65
2023-04-16T11:01:43.951Z,19.90
2023-04-16T11:04:20.237Z,20.27
2023-04-16T11:07:15.585Z,20.48
2023-04-16T11:10:09.266Z,20.41
2023-04-16T11:12:54.238Z,20.04
2023-04-16T11:15:37.997Z,20.01
2023-04-16T11:18:17.386Z,19.60
2023-04-16T11:20:44.530Z,20.10
2023-04-16T11:23:13.520Z,19.39
2023-04-16T11:25:40.338Z,20.20
2023-04-16T11:28:37.335Z,19.35
2023-04-16T11:31:13.899Z,20.11
2023-04-16T11:33:41.665Z,19.84
2023-04-16T11:36:08.533Z,20.28
2023-04-16T11:38:41.180Z,20.43
2023-04-16T11:41:08.737Z,20.29
2023-04-16T11:43:42.949Z,20.15
2023-04-16T11:46:26.405Z,20.23
2023-04-16T11:49:04.352Z,20.33
2023-04-16T11:51:40.272Z,19.89
2023-04-16T11:54:10.349Z,19.96
2023-04-16T11:56:48.030Z,20.70
2023-04-16T11:59:24.900Z,21.23
2023-04-16T12:01:56.089Z,21.17
2023-04-16T12:04:36.319Z,21.09
2023-04-16T12:07:14.141Z,21.36
2023-04-16T12:09:42.970Z,21.48
2023-04-16T12:12:27.548Z,21.74
2023-04-16T12:14:57.064Z,22.05
2023-04-16T12:17:24.502Z,22.25
2023-04-16T12:20:02.481Z,22.52
2023-04-16T12:22:37.192Z,22.22
2023-04-16T12:25:12.813Z,21.43
2023-04-16T12:28:03.484Z,22.52
2023-04-16T12:30:33.504Z,22.81
2023-04-16T12:36:47.615Z,23.54
2023-04-16T12:39:20.469Z,22.64
2023-04-16T12:42:08.123Z,22.92
2023-04-16T12:44:43.772Z,22.37
2023-04-16T12:47:32.369Z,22.69
2023-04-16T12:50:14.097Z,22.80
2023-04-16T12:52:46.574Z,23.90
2023-04-16T12:55:16.706Z,23.28
2023-04-16T12:57:43.552Z,23.18
2023-04-16T13:00:17.656Z,23.49
2023-04-16T13:02:44.525Z,23.82
2023-04-16T13:05:19.473Z,23.45
2023-04-16T13:07:52.097Z,23.02
2023-04-16T13:10:21.368Z,22.89
2023-04-16T13:12:52.661Z,22.75
2023-04-16T13:15:19.498Z,22.35
2023-04-16T13:17:51.969Z,21.85
2023-04-16T13:20:30.073Z,20.97
2023-04-16T13:22:57.137Z,21.45
2023-04-16T13:25:23.947Z,21.34
2023-04-16T13:28:00.814Z,20.90
2023-04-16T13:30:30.665Z,20.95
2023-04-16T13:33:00.731Z,20.87
2023-04-16T13:35:31.345Z,21.03
2023-04-16T13:37:58.096Z,20.77
2023-04-16T13:40:37.047Z,20.60
2023-04-16T13:43:07.808Z,20.65
2023-04-16T13:45:37.688Z,20.86
2023-04-16T13:48:07.980Z,20.54
2023-04-16T13:50:37.882Z,20.10
2023-04-16T13:53:07.617Z,20.32
2023-04-16T13:55:45.148Z,20.11
2023-04-16T13:58:20.502Z,19.67
2023-04-16T14:00:53.068Z,19.44
2023-04-16T14:06:11.052Z,19.84
2023-04-16T14:08:44.479Z,19.71
2023-04-16T14:11:12.846Z,19.91
2023-04-16T14:13:54.897Z,19.80
2023-04-16T14:16:21.699Z,19.20
2023-04-16T14:18:48.539Z,19.65
2023-04-16T14:21:20.296Z,19.54
2023-04-16T14:23:50.075Z,19.03
2023-04-16T14:26:17.062Z,19.26
2023-04-16T14:28:45.614Z,18.46
2023-04-16T14:31:14.991Z,19.10
2023-04-16T14:33:42.059Z,19.39
2023-04-16T14:36:09.057Z,19.18
2023-04-16T14:38:49.778Z,19.43
2023-04-16T14:41:18.944Z,19.00
2023-04-16T14:43:49.593Z,18.64
2023-04-16T14:46:22.913Z,18.39
2023-04-16T14:48:50.023Z,19.39
2023-04-16T14:51:16.796Z,18.08
2023-04-16T14:53:44.127Z,19.04
2023-04-16T14:56:20.006Z,19.03
2023-04-16T14:58:55.986Z,19.23
2023-04-16T15:01:26.215Z,18.86
2023-04-16T15:03:59.179Z,19.11
2023-04-16T15:06:28.062Z,19.09
2023-04-16T15:08:55.056Z,18.76
2023-04-16T15:11:23.108Z,18.07
2023-04-16T15:13:59.667Z,18.23
2023-04-16T15:16:26.633Z,19.03
2023-04-16T15:18:55.972Z,18.87
2023-04-16T15:21:23.009Z,18.86
2023-04-16T15:23:55.919Z,18.93
2023-04-16T15:26:26.755Z,18.84
2023-04-16T15:28:53.600Z,19.18
2023-04-16T15:31:26.754Z,19.06
2023-04-16T15:33:54.674Z,18.73
2023-04-16T15:36:40.030Z,18.99
2023-04-16T15:39:53.287Z,18.73
2023-04-16T15:42:46.395Z,18.08
2023-04-16T15:45:21.348Z,17.45
2023-04-16T15:47:58.048Z,18.53
2023-04-16T15:50:25.900Z,17.64
2023-04-16T15:52:53.267Z,17.33
2023-04-16T15:55:32.628Z,17.64
2023-04-16T15:58:01.959Z,18.58
2023-04-16T16:00:41.295Z,17.32
2023-04-16T16:03:10.891Z,17.43
2023-04-16T16:06:03.725Z,18.39
2023-04-16T16:08:31.014Z,17.91
2023-04-16T16:11:00.881Z,18.09
2023-04-16T16:13:31.158Z,18.16
2023-04-16T16:16:07.166Z,17.92
2023-04-16T16:18:34.079Z,18.18
2023-04-16T16:21:05.792Z,18.44
2023-04-16T16:26:24.177Z,17.15
2023-04-16T16:31:44.574Z,17.48
2023-04-16T16:34:21.452Z,17.27
2023-04-16T16:36:52.404Z,17.89
2023-04-16T16:39:25.072Z,18.28
2023-04-16T16:41:56.839Z,17.29
2023-04-16T16:44:33.218Z,18.09
2023-04-16T16:47:21.984Z,18.17
2023-04-16T16:49:50.129Z,17.88
2023-04-16T16:52:28.032Z,17.86
2023-04-16T16:55:02.114Z,17.86
2023-04-16T16:57:43.076Z,16.25
2023-04-16T17:03:09.501Z,16.53
2023-04-16T17:08:31.599Z,17.40
2023-04-16T17:11:03.174Z,16.67
2023-04-16T17:13:38.337Z,16.43
2023-04-16T17:19:06.472Z,16.57
2023-04-16T17:21:42.543Z,17.49
2023-04-16T17:24:10.921Z,17.20
2023-04-16T17:26:48.391Z,17.67
2023-04-16T17:29:17.981Z,17.52
2023-04-16T17:31:46.151Z,16.78
2023-04-16T17:37:03.164Z,17.34
2023-04-16T17:39:30.255Z,16.97
2023-04-16T17:42:01.636Z,17.12
2023-04-16T17:44:38.079Z,17.01
2023-04-16T17:47:07.332Z,17.13
2023-04-16T17:49:37.671Z,16.34
2023-04-16T17:52:10.163Z,16.85
2023-04-16T17:54:42.898Z,16.31
2023-04-16T17:57:12.822Z,16.41
2023-04-16T17:59:52.256Z,16.59
2023-04-16T18:02:30.176Z,16.61
2023-04-16T18:05:02.233Z,16.88
2023-04-16T18:07:36.792Z,17.06
2023-04-16T18:10:18.934Z,16.91
2023-04-16T18:12:47.789Z,16.76
2023-04-16T18:15:14.569Z,16.59
2023-04-16T18:17:41.950Z,16.01
2023-04-16T18:20:13.869Z,16.80
2023-04-16T18:22:43.642Z,16.84
2023-04-16T18:25:16.133Z,16.69
2023-04-16T18:27:44.836Z,16.81
2023-04-16T18:33:03.684Z,16.74
2023-04-16T18:35:30.975Z,16.74
2023-04-16T18:38:00.598Z,17.00
2023-04-16T18:40:29.375Z,16.77
2023-04-16T18:43:00.783Z,16.78
2023-04-16T18:45:40.061Z,16.59
2023-04-16T18:48:06.786Z,16.46
2023-04-16T18:50:40.998Z,16.56
2023-04-16T18:53:11.030Z,16.44
2023-04-16T18:55:40.507Z,16.26
2023-04-16T18:58:30.390Z,16.23
2023-04-16T19:01:01.397Z,16.23
2023-04-16T19:03:36.547Z,16.37
2023-04-16T19:06:08.183Z,15.55
2023-04-16T19:08:35.157Z,15.80
2023-04-16T19:11:04.556Z,16.30
2023-04-16T19:13:35.312Z,16.03
2023-04-16T19:16:11.733Z,15.84
2023-04-16T19:18:40.285Z,16.13
2023-04-16T19:21:11.055Z,16.07
2023-04-16T19:23:38.207Z,16.01
2023-04-16T19:26:14.131Z,16.08
2023-04-16T19:28:43.756Z,16.00
2023-04-16T19:31:10.590Z,14.78
2023-04-16T19:33:40.299Z,15.87
2023-04-16T19:36:19.566Z,15.24
2023-04-16T19:38:50.470Z,15.13
2023-04-16T19:41:23.593Z,15.27
2023-04-16T19:43:54.808Z,15.34
2023-04-16T19:46:21.597Z,15.64
2023-04-16T19:51:38.901Z,15.63
2023-04-16T19:54:07.184Z,14.17
2023-04-16T19:56:38.604Z,15.66
2023-04-16T19:59:06.741Z,15.72
2023-04-16T20:01:38.206Z,15.66
2023-04-16T20:04:07.138Z,15.49
2023-04-16T20:06:34.492Z,15.59
2023-04-16T20:09:12.858Z,14.77
2023-04-16T20:11:51.253Z,15.39
2023-04-16T20:17:02.352Z,15.38
2023-04-16T20:19:48.841Z,15.43
2023-04-16T20:22:18.910Z,15.24
2023-04-16T20:24:50.618Z,15.45
2023-04-16T20:27:26.854Z,15.25
2023-04-16T20:29:53.684Z,14.95
2023-04-16T20:32:35.021Z,15.32
2023-04-16T20:35:07.496Z,15.01
2023-04-16T20:37:38.101Z,15.34
2023-04-16T20:40:09.746Z,15.33
2023-04-16T20:42:41.032Z,14.67
2023-04-16T20:45:12.124Z,15.28
2023-04-16T20:47:39.010Z,15.13
2023-04-16T20:50:07.618Z,15.16
2023-04-16T20:52:51.416Z,15.47
2023-04-16T20:55:26.606Z,14.40
2023-04-16T20:57:54.423Z,14.71
2023-04-16T21:00:24.605Z,15.12
2023-04-16T21:02:51.804Z,15.14
2023-04-16T21:05:24.471Z,14.72
2023-04-16T21:08:01.541Z,14.48
2023-04-16T21:10:31.865Z,14.95
2023-04-16T21:12:59.326Z,14.68
2023-04-16T21:15:26.374Z,14.91
2023-04-16T21:17:54.626Z,13.88
2023-04-16T21:20:33.924Z,14.22
2023-04-16T21:23:03.062Z,13.77
2023-04-16T21:25:36.013Z,14.40
2023-04-16T21:28:06.438Z,14.84
2023-04-16T21:30:33.345Z,14.17
2023-04-16T21:33:00.201Z,14.55
2023-04-16T21:35:26.998Z,14.82
2023-04-16T21:37:53.744Z,13.72
2023-04-16T21:40:23.541Z,14.80
2023-04-16T21:42:52.405Z,14.75
2023-04-16T21:45:24.731Z,14.71
2023-04-16T21:47:55.893Z,14.65
2023-04-16T21:50:26.208Z,14.49
2023-04-16T21:52:55.356Z,14.45
2023-04-16T21:55:22.360Z,14.59
2023-04-16T21:57:52.302Z,14.31
2023-04-16T22:00:21.930Z,14.39
2023-04-16T22:02:53.560Z,14.00
2023-04-16T22:05:24.326Z,14.22
2023-04-16T22:07:53.490Z,14.23
2023-04-16T22:10:22.203Z,14.43
2023-04-16T22:12:56.777Z,14.33
2023-04-16T22:15:32.128Z,14.32
2023-04-16T22:18:01.339Z,14.40
2023-04-16T22:20:39.106Z,14.35
2023-04-16T22:23:06.927Z,14.36
2023-04-16T22:25:34.784Z,14.43
2023-04-16T22:28:03.565Z,14.27
2023-04-16T22:30:30.571Z,14.14
2023-04-16T22:32:59.896Z,14.23
2023-04-16T22:35:30.004Z,14.16
2023-04-16T22:38:01.437Z,14.10
2023-04-16T22:40:31.998Z,13.96
2023-04-16T22:43:01.774Z,13.36
2023-04-16T22:45:28.813Z,14.06
2023-04-16T22:47:57.651Z,13.77
2023-04-16T22:50:24.857Z,13.88
2023-04-16T22:53:00.617Z,13.85
2023-04-16T22:55:33.459Z,13.76
2023-04-16T22:58:00.569Z,13.51
2023-04-16T23:00:30.562Z,13.77
2023-04-16T23:02:59.900Z,13.68
2023-04-16T23:05:26.790Z,13.51
2023-04-16T23:08:09.186Z,13.65
2023-04-16T23:10:40.026Z,13.78
2023-04-16T23:13:08.440Z,13.58
2023-04-16T23:15:42.074Z,13.66
2023-04-16T23:18:20.850Z,13.66
2023-04-16T23:20:53.655Z,13.57
2023-04-16T23:23:23.381Z,13.06
2023-04-16T23:25:55.274Z,13.60
2023-04-16T23:28:22.514Z,13.45
2023-04-16T23:30:53.250Z,13.74
2023-04-16T23:33:24.661Z,13.72
2023-04-16T23:35:54.467Z,13.72
2023-04-16T23:38:28.585Z,13.60
2023-04-16T23:40:58.351Z,13.58
2023-04-16T23:43:45.961Z,13.54
2023-04-16T23:46:14.185Z,13.46
2023-04-16T23:48:45.142Z,13.39
2023-04-16T23:51:20.498Z,13.41
2023-04-16T23:53:53.306Z,13.36
2023-04-16T23:56:20.198Z,13.43
2023-04-16T23:58:51.322Z,13.38
